sensor_id;sensor_type;location;lat;lon;timestamp;temperature;humidity
67752;DHT22;54551;51.068;5.826;2023-04-08T00:02:14;10.20;99.90
67752;DHT22;54551;51.068;5.826;2023-04-08T00:04:40;10.20;99.90
67752;DHT22;54551;51.068;5.826;2023-04-08T00:07:06;10.20;99.90
67752;DHT22;54551;51.068;5.826;2023-04-08T00:09:32;10.20;99.90
67752;DHT22;54551;51.068;5.826;2023-04-08T00:11:58;10.20;99.90
67752;DHT22;54551;51.068;5.826;2023-04-08T00:14:25;10.20;99.90
67752;DHT22;54551;51.068;5.826;2023-04-08T00:16:51;10.20;99.90
67752;DHT22;54551;51.068;5.826;2023-04-08T00:19:17;10.20;99.90
67752;DHT22;54551;51.068;5.826;2023-04-08T00:21:44;10.20;99.90
67752;DHT22;54551;51.068;5.826;2023-04-08T00:24:10;10.20;99.90
67752;DHT22;54551;51.068;5.826;2023-04-08T00:26:36;10.20;99.90
67752;DHT22;54551;51.068;5.826;2023-04-08T00:29:02;10.20;99.90
67752;DHT22;54551;51.068;5.826;2023-04-08T00:31:28;10.20;99.90
67752;DHT22;54551;51.068;5.826;2023-04-08T00:33:55;10.20;99.90
67752;DHT22;54551;51.068;5.826;2023-04-08T00:36:21;10.20;99.90
67752;DHT22;54551;51.068;5.826;2023-04-08T00:38:47;10.20;99.90
67752;DHT22;54551;51.068;5.826;2023-04-08T00:41:13;10.20;99.90
67752;DHT22;54551;51.068;5.826;2023-04-08T00:43:39;10.20;99.90
67752;DHT22;54551;51.068;5.826;2023-04-08T00:46:05;10.20;99.90
67752;DHT22;54551;51.068;5.826;2023-04-08T00:48:31;10.20;99.90
67752;DHT22;54551;51.068;5.826;2023-04-08T00:50:57;10.20;99.90
67752;DHT22;54551;51.068;5.826;2023-04-08T00:53:23;10.20;99.90
67752;DHT22;54551;51.068;5.826;2023-04-08T00:55:49;10.20;99.90
67752;DHT22;54551;51.068;5.826;2023-04-08T00:58:16;10.20;99.90
67752;DHT22;54551;51.068;5.826;2023-04-08T01:01:10;10.20;99.90
67752;DHT22;54551;51.068;5.826;2023-04-08T01:06:14;10.20;99.90
67752;DHT22;54551;51.068;5.826;2023-04-08T01:08:44;10.10;99.90
67752;DHT22;54551;51.068;5.826;2023-04-08T01:11:12;10.10;99.90
67752;DHT22;54551;51.068;5.826;2023-04-08T01:13:41;10.10;99.90
67752;DHT22;54551;51.068;5.826;2023-04-08T01:16:09;10.20;99.90
67752;DHT22;54551;51.068;5.826;2023-04-08T01:18:37;10.10;99.90
67752;DHT22;54551;51.068;5.826;2023-04-08T01:21:05;10.10;99.90
67752;DHT22;54551;51.068;5.826;2023-04-08T01:23:40;10.10;99.90
67752;DHT22;54551;51.068;5.826;2023-04-08T01:26:10;10.10;99.90
67752;DHT22;54551;51.068;5.826;2023-04-08T01:28:38;10.10;99.90
67752;DHT22;54551;51.068;5.826;2023-04-08T01:31:06;10.10;99.90
67752;DHT22;54551;51.068;5.826;2023-04-08T01:33:33;10.10;99.90
67752;DHT22;54551;51.068;5.826;2023-04-08T01:36:00;10.10;99.90
67752;DHT22;54551;51.068;5.826;2023-04-08T01:38:29;10.00;99.90
67752;DHT22;54551;51.068;5.826;2023-04-08T01:40:56;10.10;99.90
67752;DHT22;54551;51.068;5.826;2023-04-08T01:43:23;10.00;99.90
67752;DHT22;54551;51.068;5.826;2023-04-08T01:45:51;10.10;99.90
67752;DHT22;54551;51.068;5.826;2023-04-08T01:48:23;10.00;99.90
67752;DHT22;54551;51.068;5.826;2023-04-08T01:50:51;10.00;99.90
67752;DHT22;54551;51.068;5.826;2023-04-08T01:53:17;10.00;99.90
67752;DHT22;54551;51.068;5.826;2023-04-08T01:55:44;10.00;99.90
67752;DHT22;54551;51.068;5.826;2023-04-08T01:58:17;10.00;99.90
67752;DHT22;54551;51.068;5.826;2023-04-08T02:00:45;10.00;99.90
67752;DHT22;54551;51.068;5.826;2023-04-08T02:03:13;10.00;99.90
67752;DHT22;54551;51.068;5.826;2023-04-08T02:05:45;10.00;99.90
67752;DHT22;54551;51.068;5.826;2023-04-08T02:08:11;10.00;99.90
67752;DHT22;54551;51.068;5.826;2023-04-08T02:10:37;10.00;99.90
67752;DHT22;54551;51.068;5.826;2023-04-08T02:13:04;10.00;99.90
67752;DHT22;54551;51.068;5.826;2023-04-08T02:15:33;9.90;99.90
67752;DHT22;54551;51.068;5.826;2023-04-08T02:18:21;9.90;99.90
67752;DHT22;54551;51.068;5.826;2023-04-08T02:21:10;9.90;99.90
67752;DHT22;54551;51.068;5.826;2023-04-08T02:23:39;9.90;99.90
67752;DHT22;54551;51.068;5.826;2023-04-08T02:26:13;9.90;99.90
67752;DHT22;54551;51.068;5.826;2023-04-08T02:28:40;9.90;99.90
67752;DHT22;54551;51.068;5.826;2023-04-08T02:31:11;9.90;99.90
67752;DHT22;54551;51.068;5.826;2023-04-08T02:33:43;9.90;99.90
67752;DHT22;54551;51.068;5.826;2023-04-08T02:36:11;9.90;99.90
67752;DHT22;54551;51.068;5.826;2023-04-08T02:38:37;9.90;99.90
67752;DHT22;54551;51.068;5.826;2023-04-08T02:41:03;9.90;99.90
67752;DHT22;54551;51.068;5.826;2023-04-08T02:43:29;9.90;99.90
67752;DHT22;54551;51.068;5.826;2023-04-08T02:45:59;9.80;99.90
67752;DHT22;54551;51.068;5.826;2023-04-08T02:48:29;9.80;99.90
67752;DHT22;54551;51.068;5.826;2023-04-08T02:50:55;9.80;99.90
67752;DHT22;54551;51.068;5.826;2023-04-08T02:53:23;9.80;99.90
67752;DHT22;54551;51.068;5.826;2023-04-08T02:55:49;9.80;99.90
67752;DHT22;54551;51.068;5.826;2023-04-08T02:58:15;9.80;99.90
67752;DHT22;54551;51.068;5.826;2023-04-08T03:00:41;9.80;99.90
67752;DHT22;54551;51.068;5.826;2023-04-08T03:03:07;9.80;99.90
67752;DHT22;54551;51.068;5.826;2023-04-08T03:05:33;9.80;99.90
67752;DHT22;54551;51.068;5.826;2023-04-08T03:07:59;9.90;99.90
67752;DHT22;54551;51.068;5.826;2023-04-08T03:10:25;9.90;99.90
67752;DHT22;54551;51.068;5.826;2023-04-08T03:12:51;9.90;99.90
67752;DHT22;54551;51.068;5.826;2023-04-08T03:15:17;9.90;99.90
67752;DHT22;54551;51.068;5.826;2023-04-08T03:17:43;9.90;99.90
67752;DHT22;54551;51.068;5.826;2023-04-08T03:20:09;9.90;99.90
67752;DHT22;54551;51.068;5.826;2023-04-08T03:22:35;9.90;99.90
67752;DHT22;54551;51.068;5.826;2023-04-08T03:25:01;9.90;99.90
67752;DHT22;54551;51.068;5.826;2023-04-08T03:27:29;9.90;99.90
67752;DHT22;54551;51.068;5.826;2023-04-08T03:29:55;9.90;99.90
67752;DHT22;54551;51.068;5.826;2023-04-08T03:32:22;9.90;99.90
67752;DHT22;54551;51.068;5.826;2023-04-08T03:34:48;9.90;99.90
67752;DHT22;54551;51.068;5.826;2023-04-08T03:37:18;9.90;99.90
67752;DHT22;54551;51.068;5.826;2023-04-08T03:39:44;9.90;99.90
67752;DHT22;54551;51.068;5.826;2023-04-08T03:42:11;9.90;99.90
67752;DHT22;54551;51.068;5.826;2023-04-08T03:44:37;10.00;99.90
67752;DHT22;54551;51.068;5.826;2023-04-08T03:47:02;9.90;99.90
67752;DHT22;54551;51.068;5.826;2023-04-08T03:49:28;9.90;99.90
67752;DHT22;54551;51.068;5.826;2023-04-08T03:51:54;9.90;99.90
67752;DHT22;54551;51.068;5.826;2023-04-08T03:54:20;9.90;99.90
67752;DHT22;54551;51.068;5.826;2023-04-08T03:56:48;9.90;99.90
67752;DHT22;54551;51.068;5.826;2023-04-08T03:59:13;9.90;99.90
67752;DHT22;54551;51.068;5.826;2023-04-08T04:01:39;9.90;99.90
67752;DHT22;54551;51.068;5.826;2023-04-08T04:04:05;9.90;99.90
67752;DHT22;54551;51.068;5.826;2023-04-08T04:06:31;9.90;99.90
67752;DHT22;54551;51.068;5.826;2023-04-08T04:08:57;9.90;99.90
67752;DHT22;54551;51.068;5.826;2023-04-08T04:11:23;9.90;99.90
67752;DHT22;54551;51.068;5.826;2023-04-08T04:13:49;9.90;99.90
67752;DHT22;54551;51.068;5.826;2023-04-08T04:16:15;10.00;99.90
67752;DHT22;54551;51.068;5.826;2023-04-08T04:18:41;9.90;99.90
67752;DHT22;54551;51.068;5.826;2023-04-08T04:21:07;10.00;99.90
67752;DHT22;54551;51.068;5.826;2023-04-08T04:23:33;9.90;99.90
67752;DHT22;54551;51.068;5.826;2023-04-08T04:25:59;10.00;99.90
67752;DHT22;54551;51.068;5.826;2023-04-08T04:28:25;10.00;99.90
67752;DHT22;54551;51.068;5.826;2023-04-08T04:30:51;10.00;99.90
67752;DHT22;54551;51.068;5.826;2023-04-08T04:33:17;9.90;99.90
67752;DHT22;54551;51.068;5.826;2023-04-08T04:35:43;10.00;99.90
67752;DHT22;54551;51.068;5.826;2023-04-08T04:38:09;10.00;99.90
67752;DHT22;54551;51.068;5.826;2023-04-08T04:40:38;10.00;99.90
67752;DHT22;54551;51.068;5.826;2023-04-08T04:43:04;10.00;99.90
67752;DHT22;54551;51.068;5.826;2023-04-08T04:45:30;10.00;99.90
67752;DHT22;54551;51.068;5.826;2023-04-08T04:47:56;10.00;99.90
67752;DHT22;54551;51.068;5.826;2023-04-08T04:50:22;9.90;99.90
67752;DHT22;54551;51.068;5.826;2023-04-08T04:52:48;9.90;99.90
67752;DHT22;54551;51.068;5.826;2023-04-08T04:55:15;9.90;99.90
67752;DHT22;54551;51.068;5.826;2023-04-08T04:57:41;9.80;99.90
67752;DHT22;54551;51.068;5.826;2023-04-08T05:00:09;9.80;99.90
67752;DHT22;54551;51.068;5.826;2023-04-08T05:02:35;9.80;99.90
67752;DHT22;54551;51.068;5.826;2023-04-08T05:05:01;9.80;99.90
67752;DHT22;54551;51.068;5.826;2023-04-08T05:07:27;9.80;99.90
67752;DHT22;54551;51.068;5.826;2023-04-08T05:09:53;9.80;99.90
67752;DHT22;54551;51.068;5.826;2023-04-08T05:12:19;9.70;99.90
67752;DHT22;54551;51.068;5.826;2023-04-08T05:14:46;9.70;99.90
67752;DHT22;54551;51.068;5.826;2023-04-08T05:17:11;9.70;99.90
67752;DHT22;54551;51.068;5.826;2023-04-08T05:19:37;9.70;99.90
67752;DHT22;54551;51.068;5.826;2023-04-08T05:22:03;9.70;99.90
67752;DHT22;54551;51.068;5.826;2023-04-08T05:24:29;9.70;99.90
67752;DHT22;54551;51.068;5.826;2023-04-08T05:26:55;9.70;99.90
67752;DHT22;54551;51.068;5.826;2023-04-08T05:29:22;9.70;99.90
67752;DHT22;54551;51.068;5.826;2023-04-08T05:31:48;9.70;99.90
67752;DHT22;54551;51.068;5.826;2023-04-08T05:34:14;9.70;99.90
67752;DHT22;54551;51.068;5.826;2023-04-08T05:36:40;9.80;99.90
67752;DHT22;54551;51.068;5.826;2023-04-08T05:39:07;9.80;99.90
67752;DHT22;54551;51.068;5.826;2023-04-08T05:41:32;9.80;99.90
67752;DHT22;54551;51.068;5.826;2023-04-08T05:43:58;9.90;99.90
67752;DHT22;54551;51.068;5.826;2023-04-08T05:46:24;9.90;99.90
67752;DHT22;54551;51.068;5.826;2023-04-08T05:48:50;9.90;99.90
67752;DHT22;54551;51.068;5.826;2023-04-08T05:51:16;10.00;99.90
67752;DHT22;54551;51.068;5.826;2023-04-08T05:53:44;10.10;99.90
67752;DHT22;54551;51.068;5.826;2023-04-08T05:56:10;10.10;99.90
67752;DHT22;54551;51.068;5.826;2023-04-08T05:58:36;10.20;99.90
67752;DHT22;54551;51.068;5.826;2023-04-08T06:01:02;10.30;99.90
67752;DHT22;54551;51.068;5.826;2023-04-08T06:03:29;10.30;99.90
67752;DHT22;54551;51.068;5.826;2023-04-08T06:05:55;10.50;99.90
67752;DHT22;54551;51.068;5.826;2023-04-08T06:08:21;10.60;99.90
67752;DHT22;54551;51.068;5.826;2023-04-08T06:10:49;10.70;99.90
67752;DHT22;54551;51.068;5.826;2023-04-08T06:13:15;10.80;99.90
67752;DHT22;54551;51.068;5.826;2023-04-08T06:15:41;10.90;99.90
67752;DHT22;54551;51.068;5.826;2023-04-08T06:18:07;11.00;99.90
67752;DHT22;54551;51.068;5.826;2023-04-08T06:20:34;11.00;99.90
67752;DHT22;54551;51.068;5.826;2023-04-08T06:23:00;10.90;99.90
67752;DHT22;54551;51.068;5.826;2023-04-08T06:25:26;10.90;99.90
67752;DHT22;54551;51.068;5.826;2023-04-08T06:27:52;10.80;99.90
67752;DHT22;54551;51.068;5.826;2023-04-08T06:30:18;10.70;99.90
67752;DHT22;54551;51.068;5.826;2023-04-08T06:32:45;10.60;99.90
67752;DHT22;54551;51.068;5.826;2023-04-08T06:35:12;10.60;99.90
67752;DHT22;54551;51.068;5.826;2023-04-08T06:37:38;10.70;99.90
67752;DHT22;54551;51.068;5.826;2023-04-08T06:40:05;10.60;99.90
67752;DHT22;54551;51.068;5.826;2023-04-08T06:42:31;10.50;99.90
67752;DHT22;54551;51.068;5.826;2023-04-08T06:45:16;10.60;99.90
67752;DHT22;54551;51.068;5.826;2023-04-08T06:47:42;10.60;99.90
67752;DHT22;54551;51.068;5.826;2023-04-08T06:50:08;10.70;99.90
67752;DHT22;54551;51.068;5.826;2023-04-08T06:52:34;10.70;99.90
67752;DHT22;54551;51.068;5.826;2023-04-08T06:55:00;10.70;99.90
67752;DHT22;54551;51.068;5.826;2023-04-08T06:57:26;10.70;99.90
67752;DHT22;54551;51.068;5.826;2023-04-08T06:59:52;10.60;99.90
67752;DHT22;54551;51.068;5.826;2023-04-08T07:02:18;10.60;99.90
67752;DHT22;54551;51.068;5.826;2023-04-08T07:04:44;10.70;99.90
67752;DHT22;54551;51.068;5.826;2023-04-08T07:07:10;10.80;99.90
67752;DHT22;54551;51.068;5.826;2023-04-08T07:09:36;10.90;99.90
67752;DHT22;54551;51.068;5.826;2023-04-08T07:12:02;11.00;99.90
67752;DHT22;54551;51.068;5.826;2023-04-08T07:14:29;11.20;99.90
67752;DHT22;54551;51.068;5.826;2023-04-08T07:16:55;11.50;99.90
67752;DHT22;54551;51.068;5.826;2023-04-08T07:19:21;11.60;99.90
67752;DHT22;54551;51.068;5.826;2023-04-08T07:21:49;11.70;99.90
67752;DHT22;54551;51.068;5.826;2023-04-08T07:24:15;11.70;99.90
67752;DHT22;54551;51.068;5.826;2023-04-08T07:26:41;11.90;99.90
67752;DHT22;54551;51.068;5.826;2023-04-08T07:29:07;12.10;99.90
67752;DHT22;54551;51.068;5.826;2023-04-08T07:31:33;12.10;99.90
67752;DHT22;54551;51.068;5.826;2023-04-08T07:33:59;12.30;99.90
67752;DHT22;54551;51.068;5.826;2023-04-08T07:36:25;12.40;99.90
67752;DHT22;54551;51.068;5.826;2023-04-08T07:38:51;12.30;99.90
67752;DHT22;54551;51.068;5.826;2023-04-08T07:41:17;12.20;99.90
67752;DHT22;54551;51.068;5.826;2023-04-08T07:43:42;12.10;99.90
67752;DHT22;54551;51.068;5.826;2023-04-08T07:46:08;12.10;99.90
67752;DHT22;54551;51.068;5.826;2023-04-08T07:48:35;12.10;99.90
67752;DHT22;54551;51.068;5.826;2023-04-08T07:51:05;12.20;99.90
67752;DHT22;54551;51.068;5.826;2023-04-08T07:53:32;12.20;99.90
67752;DHT22;54551;51.068;5.826;2023-04-08T07:55:59;12.20;99.90
67752;DHT22;54551;51.068;5.826;2023-04-08T07:58:25;12.10;99.90
67752;DHT22;54551;51.068;5.826;2023-04-08T08:00:52;12.00;99.90
67752;DHT22;54551;51.068;5.826;2023-04-08T08:03:18;11.80;99.90
67752;DHT22;54551;51.068;5.826;2023-04-08T08:05:44;11.80;99.90
67752;DHT22;54551;51.068;5.826;2023-04-08T08:08:10;11.80;99.90
67752;DHT22;54551;51.068;5.826;2023-04-08T08:10:37;11.90;99.90
67752;DHT22;54551;51.068;5.826;2023-04-08T08:13:04;12.00;99.90
67752;DHT22;54551;51.068;5.826;2023-04-08T08:15:31;12.10;99.90
67752;DHT22;54551;51.068;5.826;2023-04-08T08:17:57;12.50;99.90
67752;DHT22;54551;51.068;5.826;2023-04-08T08:20:23;13.10;99.90
67752;DHT22;54551;51.068;5.826;2023-04-08T08:22:49;13.60;99.90
67752;DHT22;54551;51.068;5.826;2023-04-08T08:25:15;13.90;99.90
67752;DHT22;54551;51.068;5.826;2023-04-08T08:27:42;14.00;99.90
67752;DHT22;54551;51.068;5.826;2023-04-08T08:30:10;14.20;99.90
67752;DHT22;54551;51.068;5.826;2023-04-08T08:32:36;14.40;99.90
67752;DHT22;54551;51.068;5.826;2023-04-08T08:35:02;14.40;99.90
67752;DHT22;54551;51.068;5.826;2023-04-08T08:37:28;14.60;99.90
67752;DHT22;54551;51.068;5.826;2023-04-08T08:39:54;14.70;99.90
67752;DHT22;54551;51.068;5.826;2023-04-08T08:42:22;14.80;99.90
67752;DHT22;54551;51.068;5.826;2023-04-08T08:44:48;15.10;99.90
67752;DHT22;54551;51.068;5.826;2023-04-08T08:47:15;15.30;99.90
67752;DHT22;54551;51.068;5.826;2023-04-08T08:49:41;15.30;99.90
67752;DHT22;54551;51.068;5.826;2023-04-08T08:52:07;15.00;99.90
67752;DHT22;54551;51.068;5.826;2023-04-08T08:54:34;14.90;99.90
67752;DHT22;54551;51.068;5.826;2023-04-08T08:57:00;14.80;99.90
67752;DHT22;54551;51.068;5.826;2023-04-08T08:59:26;14.60;99.90
67752;DHT22;54551;51.068;5.826;2023-04-08T09:01:52;14.40;99.90
67752;DHT22;54551;51.068;5.826;2023-04-08T09:04:21;14.20;99.90
67752;DHT22;54551;51.068;5.826;2023-04-08T09:07:05;14.10;99.90
67752;DHT22;54551;51.068;5.826;2023-04-08T09:09:49;14.30;99.90
67752;DHT22;54551;51.068;5.826;2023-04-08T09:12:15;14.60;99.90
67752;DHT22;54551;51.068;5.826;2023-04-08T09:14:41;15.00;99.90
67752;DHT22;54551;51.068;5.826;2023-04-08T09:17:08;15.30;99.90
67752;DHT22;54551;51.068;5.826;2023-04-08T09:19:33;15.50;99.90
67752;DHT22;54551;51.068;5.826;2023-04-08T09:22:06;15.50;99.90
67752;DHT22;54551;51.068;5.826;2023-04-08T09:24:32;15.50;99.90
67752;DHT22;54551;51.068;5.826;2023-04-08T09:26:58;15.70;99.90
67752;DHT22;54551;51.068;5.826;2023-04-08T09:29:25;15.80;99.90
67752;DHT22;54551;51.068;5.826;2023-04-08T09:31:54;16.10;99.90
67752;DHT22;54551;51.068;5.826;2023-04-08T09:34:20;16.50;99.90
67752;DHT22;54551;51.068;5.826;2023-04-08T09:36:52;17.30;99.90
67752;DHT22;54551;51.068;5.826;2023-04-08T09:39:18;18.10;99.90
67752;DHT22;54551;51.068;5.826;2023-04-08T09:41:48;18.60;99.90
67752;DHT22;54551;51.068;5.826;2023-04-08T09:44:15;19.10;99.90
67752;DHT22;54551;51.068;5.826;2023-04-08T09:49:26;18.10;99.90
67752;DHT22;54551;51.068;5.826;2023-04-08T09:52:04;18.00;99.90
67752;DHT22;54551;51.068;5.826;2023-04-08T09:54:55;18.50;99.90
67752;DHT22;54551;51.068;5.826;2023-04-08T09:57:49;18.90;99.90
67752;DHT22;54551;51.068;5.826;2023-04-08T10:00:16;19.20;99.90
67752;DHT22;54551;51.068;5.826;2023-04-08T10:05:18;19.60;99.90
67752;DHT22;54551;51.068;5.826;2023-04-08T10:07:45;19.30;99.90
67752;DHT22;54551;51.068;5.826;2023-04-08T10:10:12;18.90;99.90
67752;DHT22;54551;51.068;5.826;2023-04-08T10:12:40;18.80;99.90
67752;DHT22;54551;51.068;5.826;2023-04-08T10:23:05;19.70;99.90
67752;DHT22;54551;51.068;5.826;2023-04-08T10:25:33;19.60;99.90
67752;DHT22;54551;51.068;5.826;2023-04-08T10:28:45;19.70;99.90
67752;DHT22;54551;51.068;5.826;2023-04-08T10:30:50;20.10;99.90
67752;DHT22;54551;51.068;5.826;2023-04-08T10:35:55;21.30;99.90
67752;DHT22;54551;51.068;5.826;2023-04-08T10:38:24;21.70;99.90
67752;DHT22;54551;51.068;5.826;2023-04-08T10:40:50;20.80;99.90
67752;DHT22;54551;51.068;5.826;2023-04-08T10:43:17;20.20;99.90
67752;DHT22;54551;51.068;5.826;2023-04-08T10:45:43;19.70;99.90
67752;DHT22;54551;51.068;5.826;2023-04-08T10:48:19;19.40;99.90
67752;DHT22;54551;51.068;5.826;2023-04-08T10:53:27;19.30;99.90
67752;DHT22;54551;51.068;5.826;2023-04-08T10:58:28;19.00;99.90
67752;DHT22;54551;51.068;5.826;2023-04-08T11:00:54;19.30;99.90
67752;DHT22;54551;51.068;5.826;2023-04-08T11:03:20;19.90;99.90
67752;DHT22;54551;51.068;5.826;2023-04-08T11:05:48;20.40;99.90
67752;DHT22;54551;51.068;5.826;2023-04-08T11:08:14;20.10;99.90
67752;DHT22;54551;51.068;5.826;2023-04-08T11:10:41;20.70;99.90
67752;DHT22;54551;51.068;5.826;2023-04-08T11:13:07;20.90;99.90
67752;DHT22;54551;51.068;5.826;2023-04-08T11:15:37;20.50;99.90
67752;DHT22;54551;51.068;5.826;2023-04-08T11:18:04;20.50;99.90
67752;DHT22;54551;51.068;5.826;2023-04-08T11:20:31;20.40;99.90
67752;DHT22;54551;51.068;5.826;2023-04-08T11:23:00;20.20;99.90
67752;DHT22;54551;51.068;5.826;2023-04-08T11:25:27;19.80;99.90
67752;DHT22;54551;51.068;5.826;2023-04-08T11:27:53;19.30;99.90
67752;DHT22;54551;51.068;5.826;2023-04-08T11:30:20;19.20;99.90
67752;DHT22;54551;51.068;5.826;2023-04-08T11:32:47;19.40;99.90
67752;DHT22;54551;51.068;5.826;2023-04-08T11:35:16;19.20;99.90
67752;DHT22;54551;51.068;5.826;2023-04-08T11:37:42;19.00;99.90
67752;DHT22;54551;51.068;5.826;2023-04-08T11:40:11;19.00;99.90
67752;DHT22;54551;51.068;5.826;2023-04-08T11:42:38;18.90;99.90
67752;DHT22;54551;51.068;5.826;2023-04-08T11:45:12;18.80;99.90
67752;DHT22;54551;51.068;5.826;2023-04-08T11:47:39;18.80;99.90
67752;DHT22;54551;51.068;5.826;2023-04-08T11:50:06;18.60;99.90
67752;DHT22;54551;51.068;5.826;2023-04-08T11:52:46;18.20;99.90
67752;DHT22;54551;51.068;5.826;2023-04-08T11:55:24;18.30;99.90
67752;DHT22;54551;51.068;5.826;2023-04-08T11:57:51;18.40;99.90
67752;DHT22;54551;51.068;5.826;2023-04-08T12:00:18;18.50;99.90
67752;DHT22;54551;51.068;5.826;2023-04-08T12:02:44;18.50;99.90
67752;DHT22;54551;51.068;5.826;2023-04-08T12:05:13;18.50;99.90
67752;DHT22;54551;51.068;5.826;2023-04-08T12:07:39;18.30;99.90
67752;DHT22;54551;51.068;5.826;2023-04-08T12:10:06;17.70;99.90
67752;DHT22;54551;51.068;5.826;2023-04-08T12:12:32;17.50;99.90
67752;DHT22;54551;51.068;5.826;2023-04-08T12:14:58;17.90;99.90
67752;DHT22;54551;51.068;5.826;2023-04-08T12:17:24;18.60;99.90
67752;DHT22;54551;51.068;5.826;2023-04-08T12:19:50;19.10;99.90
67752;DHT22;54551;51.068;5.826;2023-04-08T12:22:16;19.10;99.90
67752;DHT22;54551;51.068;5.826;2023-04-08T12:24:42;19.30;99.90
67752;DHT22;54551;51.068;5.826;2023-04-08T12:27:08;19.60;99.90
67752;DHT22;54551;51.068;5.826;2023-04-08T12:29:34;20.00;99.90
67752;DHT22;54551;51.068;5.826;2023-04-08T12:32:00;19.90;99.90
67752;DHT22;54551;51.068;5.826;2023-04-08T12:34:27;20.20;99.90
67752;DHT22;54551;51.068;5.826;2023-04-08T12:36:53;20.20;99.90
67752;DHT22;54551;51.068;5.826;2023-04-08T12:39:20;20.30;99.90
67752;DHT22;54551;51.068;5.826;2023-04-08T12:41:47;19.80;99.90
67752;DHT22;54551;51.068;5.826;2023-04-08T12:44:13;19.50;99.90
67752;DHT22;54551;51.068;5.826;2023-04-08T12:46:39;19.40;99.90
67752;DHT22;54551;51.068;5.826;2023-04-08T12:49:05;19.20;99.90
67752;DHT22;54551;51.068;5.826;2023-04-08T12:51:31;18.70;99.90
67752;DHT22;54551;51.068;5.826;2023-04-08T12:53:57;18.40;99.90
67752;DHT22;54551;51.068;5.826;2023-04-08T12:56:24;18.30;99.90
67752;DHT22;54551;51.068;5.826;2023-04-08T12:58:50;18.20;99.90
67752;DHT22;54551;51.068;5.826;2023-04-08T13:01:16;17.80;99.90
67752;DHT22;54551;51.068;5.826;2023-04-08T13:03:42;17.40;99.90
67752;DHT22;54551;51.068;5.826;2023-04-08T13:06:08;17.30;99.90
67752;DHT22;54551;51.068;5.826;2023-04-08T13:08:34;17.10;99.90
67752;DHT22;54551;51.068;5.826;2023-04-08T13:11:00;16.90;99.90
67752;DHT22;54551;51.068;5.826;2023-04-08T13:13:26;16.70;99.90
67752;DHT22;54551;51.068;5.826;2023-04-08T13:15:53;16.40;99.90
67752;DHT22;54551;51.068;5.826;2023-04-08T13:18:19;16.30;99.90
67752;DHT22;54551;51.068;5.826;2023-04-08T13:20:45;16.40;99.90
67752;DHT22;54551;51.068;5.826;2023-04-08T13:23:11;16.50;99.90
67752;DHT22;54551;51.068;5.826;2023-04-08T13:25:39;16.50;99.90
67752;DHT22;54551;51.068;5.826;2023-04-08T13:28:05;16.50;99.90
67752;DHT22;54551;51.068;5.826;2023-04-08T13:30:31;16.40;99.90
67752;DHT22;54551;51.068;5.826;2023-04-08T13:32:57;16.60;99.90
67752;DHT22;54551;51.068;5.826;2023-04-08T13:35:23;16.50;99.90
67752;DHT22;54551;51.068;5.826;2023-04-08T13:37:49;16.50;99.90
67752;DHT22;54551;51.068;5.826;2023-04-08T13:40:15;16.40;99.90
67752;DHT22;54551;51.068;5.826;2023-04-08T13:42:41;16.50;99.90
67752;DHT22;54551;51.068;5.826;2023-04-08T13:45:07;16.70;99.90
67752;DHT22;54551;51.068;5.826;2023-04-08T13:47:33;16.60;99.90
67752;DHT22;54551;51.068;5.826;2023-04-08T13:49:59;16.60;99.90
67752;DHT22;54551;51.068;5.826;2023-04-08T13:52:26;16.80;99.90
67752;DHT22;54551;51.068;5.826;2023-04-08T13:54:52;17.00;99.90
67752;DHT22;54551;51.068;5.826;2023-04-08T13:57:17;16.10;99.90
67752;DHT22;54551;51.068;5.826;2023-04-08T13:59:43;16.30;99.90
67752;DHT22;54551;51.068;5.826;2023-04-08T14:02:10;16.00;99.90
67752;DHT22;54551;51.068;5.826;2023-04-08T14:04:36;16.00;99.90
67752;DHT22;54551;51.068;5.826;2023-04-08T14:07:02;16.30;99.90
67752;DHT22;54551;51.068;5.826;2023-04-08T14:09:28;16.50;99.90
67752;DHT22;54551;51.068;5.826;2023-04-08T14:11:54;16.60;99.90
67752;DHT22;54551;51.068;5.826;2023-04-08T14:14:20;16.70;99.90
67752;DHT22;54551;51.068;5.826;2023-04-08T14:16:46;16.80;99.90
67752;DHT22;54551;51.068;5.826;2023-04-08T14:19:13;17.00;99.90
67752;DHT22;54551;51.068;5.826;2023-04-08T14:21:39;17.00;99.90
67752;DHT22;54551;51.068;5.826;2023-04-08T14:24:05;16.70;99.90
67752;DHT22;54551;51.068;5.826;2023-04-08T14:26:31;16.60;99.90
67752;DHT22;54551;51.068;5.826;2023-04-08T14:29:04;15.80;99.90
67752;DHT22;54551;51.068;5.826;2023-04-08T14:31:31;15.70;99.90
67752;DHT22;54551;51.068;5.826;2023-04-08T14:33:58;15.40;99.90
67752;DHT22;54551;51.068;5.826;2023-04-08T14:36:25;15.60;99.90
67752;DHT22;54551;51.068;5.826;2023-04-08T14:38:53;15.50;99.90
67752;DHT22;54551;51.068;5.826;2023-04-08T14:41:20;15.00;99.90
67752;DHT22;54551;51.068;5.826;2023-04-08T14:43:47;14.90;99.90
67752;DHT22;54551;51.068;5.826;2023-04-08T14:46:13;14.90;99.90
67752;DHT22;54551;51.068;5.826;2023-04-08T14:48:39;14.70;99.90
67752;DHT22;54551;51.068;5.826;2023-04-08T14:51:05;14.20;99.90
67752;DHT22;54551;51.068;5.826;2023-04-08T14:53:32;14.10;99.90
67752;DHT22;54551;51.068;5.826;2023-04-08T14:55:58;14.30;99.90
67752;DHT22;54551;51.068;5.826;2023-04-08T14:58:24;14.40;99.90
67752;DHT22;54551;51.068;5.826;2023-04-08T15:00:50;14.50;99.90
67752;DHT22;54551;51.068;5.826;2023-04-08T15:03:17;14.50;99.90
67752;DHT22;54551;51.068;5.826;2023-04-08T15:05:55;14.40;99.90
67752;DHT22;54551;51.068;5.826;2023-04-08T15:08:21;14.30;99.90
67752;DHT22;54551;51.068;5.826;2023-04-08T15:10:47;14.30;99.90
67752;DHT22;54551;51.068;5.826;2023-04-08T15:13:13;14.40;99.90
67752;DHT22;54551;51.068;5.826;2023-04-08T15:15:38;14.50;99.90
67752;DHT22;54551;51.068;5.826;2023-04-08T15:18:05;14.50;99.90
67752;DHT22;54551;51.068;5.826;2023-04-08T15:20:31;14.30;99.90
67752;DHT22;54551;51.068;5.826;2023-04-08T15:22:57;14.40;99.90
67752;DHT22;54551;51.068;5.826;2023-04-08T15:25:22;14.40;99.90
67752;DHT22;54551;51.068;5.826;2023-04-08T15:27:48;14.30;99.90
67752;DHT22;54551;51.068;5.826;2023-04-08T15:30:14;14.30;99.90
67752;DHT22;54551;51.068;5.826;2023-04-08T15:32:41;14.30;99.90
67752;DHT22;54551;51.068;5.826;2023-04-08T15:35:08;14.30;99.90
67752;DHT22;54551;51.068;5.826;2023-04-08T15:37:34;14.40;99.90
67752;DHT22;54551;51.068;5.826;2023-04-08T15:40:00;14.10;99.90
67752;DHT22;54551;51.068;5.826;2023-04-08T15:42:26;14.10;99.90
67752;DHT22;54551;51.068;5.826;2023-04-08T15:44:52;14.30;99.90
67752;DHT22;54551;51.068;5.826;2023-04-08T15:47:18;14.30;99.90
67752;DHT22;54551;51.068;5.826;2023-04-08T15:49:44;13.80;99.90
67752;DHT22;54551;51.068;5.826;2023-04-08T15:52:10;13.90;99.90
67752;DHT22;54551;51.068;5.826;2023-04-08T15:54:36;14.10;99.90
67752;DHT22;54551;51.068;5.826;2023-04-08T15:57:02;14.00;99.90
67752;DHT22;54551;51.068;5.826;2023-04-08T15:59:28;14.10;99.90